METAR AND TAF INFORMATION
METAR FOR KLCI
ADDS - METARS form results

(2234 UTC 21 November 2019)
Data provider http://aviationweather.gov/metar/data/
 
METAR text: KLCI 212156Z AUTO 26003KT 10SM CLR 02/M01 A3004 RMK AO2 SLP178 T00221011 FZRANO
Conditions at: KLCI (LACONIA MUNI , NH, US) observed 2156 UTC 21 November 2019
Temperature: 2.2°C (36°F)
Dewpoint: -1.1°C (30°F) [RH = 79%]
Pressure (altimeter): 30.04 inches Hg (1017.4 mb)
[Sea-level pressure: 1017.8 mb]
Winds: from the W (260 degrees) at 3 MPH (3 knots; 1.5 m/s)
Visibility: 10 or more miles (16+ km)
Ceiling: at least 12,000 feet AGL
Clouds: sky clear below 12,000 feet AGL
Weather: automated observation with no human augmentation;
there may or may not be significant weather present at this time

 AIRPORT MAP

 RUNWAY INFORMATION
Runway 08 Runway length 5286 ft Runway width 100 ft
Runway elevation 545 ft Runway displaced threshold 0 ft Runway heading 68
Runway 26 Runway length 5286 ft Runway width 100 ft
Runway elevation 518 ft Runway displaced threshold 0 ft Runway heading 248

 AIRPORT FREQUENCIES
Type A/D Name BOSTON APP Frequency 127.35 MHZ
Type AWOS Name AWOS 3 Frequency 133.525 MHZ
Type CLD Name CLNC DEL Frequency 119.85 MHZ
Type RDO Name CONCORD RD Frequency 122.5 MHZ
Type UNIC Name CTAF/UNICO Frequency 123 MHZ

 AIRPORT NEAR NAVIGATION AIDS



Copyright © 2019 Cape Air Virtual

CMS powered by VAM [v2.6.2]